createdAt,value
2022-09-15T00:01:20.735Z,16.91
2022-09-15T00:03:49.287Z,16.94
2022-09-15T00:06:17.409Z,16.92
2022-09-15T00:08:45.158Z,16.88
2022-09-15T00:11:20.362Z,16.87
2022-09-15T00:13:48.308Z,16.82
2022-09-15T00:16:18.333Z,16.81
2022-09-15T00:18:46.299Z,16.81
2022-09-15T00:21:15.461Z,16.78
2022-09-15T00:23:43.401Z,16.78
2022-09-15T00:26:12.610Z,16.76
2022-09-15T00:28:40.409Z,16.70
2022-09-15T00:31:09.782Z,16.67
2022-09-15T00:33:37.841Z,16.64
2022-09-15T00:36:10.892Z,16.64
2022-09-15T00:38:39.318Z,16.59
2022-09-15T00:41:08.478Z,16.50
2022-09-15T00:43:49.115Z,16.40
2022-09-15T00:46:20.830Z,16.38
2022-09-15T00:48:51.939Z,16.37
2022-09-15T00:51:20.898Z,16.38
2022-09-15T00:53:48.868Z,16.40
2022-09-15T00:56:19.860Z,16.43
2022-09-15T00:58:55.612Z,16.45
2022-09-15T01:01:23.996Z,16.44
2022-09-15T01:03:55.865Z,16.39
2022-09-15T01:06:32.218Z,16.35
2022-09-15T01:09:12.062Z,16.30
2022-09-15T01:11:39.829Z,16.26
2022-09-15T01:14:08.060Z,16.22
2022-09-15T01:16:52.258Z,16.19
2022-09-15T01:19:32.362Z,16.23
2022-09-15T01:22:18.806Z,16.28
2022-09-15T01:25:02.028Z,16.34
2022-09-15T01:27:48.457Z,16.38
2022-09-15T01:30:19.243Z,16.38
2022-09-15T01:33:07.222Z,16.39
2022-09-15T01:35:38.017Z,16.41
2022-09-15T01:38:14.776Z,16.42
2022-09-15T01:40:51.002Z,16.38
2022-09-15T01:43:20.279Z,16.35
2022-09-15T01:45:48.315Z,16.33
2022-09-15T01:48:18.696Z,16.31
2022-09-15T01:50:47.380Z,16.32
2022-09-15T01:53:16.242Z,16.27
2022-09-15T01:56:07.420Z,16.20
2022-09-15T01:58:35.529Z,16.09
2022-09-15T02:01:07.809Z,16.07
2022-09-15T02:03:39.778Z,16.08
2022-09-15T02:06:09.206Z,16.05
2022-09-15T02:08:38.569Z,15.95
2022-09-15T02:11:18.306Z,15.85
2022-09-15T02:13:52.224Z,15.73
2022-09-15T02:16:21.314Z,15.67
2022-09-15T02:18:56.778Z,15.62
2022-09-15T02:21:30.052Z,15.60
2022-09-15T02:24:01.372Z,15.63
2022-09-15T02:26:29.470Z,15.66
2022-09-15T02:28:57.226Z,15.69
2022-09-15T02:31:25.177Z,15.71
2022-09-15T02:33:58.095Z,15.69
2022-09-15T02:36:26.025Z,15.73
2022-09-15T02:38:58.270Z,15.70
2022-09-15T02:41:29.125Z,15.61
2022-09-15T02:43:58.155Z,15.51
2022-09-15T02:46:25.884Z,15.41
2022-09-15T02:48:57.190Z,15.34
2022-09-15T02:51:25.618Z,15.27
2022-09-15T02:53:55.297Z,15.22
2022-09-15T02:56:23.849Z,15.21
2022-09-15T02:58:51.592Z,15.18
2022-09-15T03:01:19.409Z,15.21
2022-09-15T03:03:47.266Z,15.25
2022-09-15T03:06:17.746Z,15.32
2022-09-15T03:08:51.097Z,15.34
2022-09-15T03:11:20.422Z,15.37
2022-09-15T03:13:48.560Z,15.42
2022-09-15T03:16:16.480Z,15.45
2022-09-15T03:18:44.316Z,15.43
2022-09-15T03:21:13.510Z,15.38
2022-09-15T03:23:43.723Z,15.38
2022-09-15T03:26:11.702Z,15.40
2022-09-15T03:28:42.509Z,15.45
2022-09-15T03:31:10.265Z,15.49
2022-09-15T03:33:39.301Z,15.51
2022-09-15T03:36:07.391Z,15.51
2022-09-15T03:38:35.138Z,15.46
2022-09-15T03:41:07.589Z,15.37
2022-09-15T03:43:38.781Z,15.33
2022-09-15T03:46:07.034Z,15.34
2022-09-15T03:48:37.574Z,15.29
2022-09-15T03:51:06.805Z,15.28
2022-09-15T03:53:36.227Z,15.29
2022-09-15T03:56:08.516Z,15.32
2022-09-15T03:58:38.677Z,15.37
2022-09-15T04:01:06.656Z,15.44
2022-09-15T04:03:40.250Z,15.51
2022-09-15T04:06:11.547Z,15.58
2022-09-15T04:08:39.449Z,15.58
2022-09-15T04:11:09.467Z,15.47
2022-09-15T04:13:38.228Z,15.40
2022-09-15T04:16:08.187Z,15.33
2022-09-15T04:18:36.151Z,15.26
2022-09-15T04:21:05.951Z,15.23
2022-09-15T04:23:34.057Z,15.20
2022-09-15T04:26:06.901Z,15.17
2022-09-15T04:28:35.550Z,15.16
2022-09-15T04:31:13.682Z,15.21
2022-09-15T04:33:42.326Z,15.22
2022-09-15T04:36:11.266Z,15.22
2022-09-15T04:38:39.830Z,15.22
2022-09-15T04:41:08.891Z,15.25
2022-09-15T04:43:39.213Z,15.27
2022-09-15T04:46:07.796Z,15.26
2022-09-15T04:48:35.657Z,15.26
2022-09-15T04:51:04.283Z,15.25
2022-09-15T04:53:32.329Z,15.30
2022-09-15T04:56:08.901Z,15.30
2022-09-15T04:58:51.331Z,15.30
2022-09-15T05:01:20.585Z,15.23
2022-09-15T05:03:50.150Z,15.20
2022-09-15T05:06:19.401Z,15.19
2022-09-15T05:08:49.820Z,15.21
2022-09-15T05:11:18.357Z,15.24
2022-09-15T05:13:46.598Z,15.25
2022-09-15T05:16:18.588Z,15.23
2022-09-15T05:18:46.984Z,15.20
2022-09-15T05:21:16.260Z,15.16
2022-09-15T05:23:44.230Z,15.13
2022-09-15T05:26:14.480Z,15.03
2022-09-15T05:28:43.060Z,14.97
2022-09-15T05:31:11.871Z,14.93
2022-09-15T05:33:40.886Z,14.94
2022-09-15T05:36:09.011Z,14.95
2022-09-15T05:38:40.943Z,14.98
2022-09-15T05:41:10.540Z,15.03
2022-09-15T05:43:39.666Z,14.99
2022-09-15T05:46:07.836Z,15.01
2022-09-15T05:48:35.989Z,15.02
2022-09-15T05:51:04.443Z,15.06
2022-09-15T05:53:34.150Z,15.04
2022-09-15T05:56:03.398Z,15.03
2022-09-15T05:58:31.919Z,15.04
2022-09-15T06:01:08.816Z,15.15
2022-09-15T06:03:36.931Z,15.20
2022-09-15T06:06:05.446Z,15.12
2022-09-15T06:08:33.888Z,15.09
2022-09-15T06:11:02.943Z,15.06
2022-09-15T06:13:30.824Z,15.02
2022-09-15T06:16:02.887Z,14.97
2022-09-15T06:18:30.883Z,14.94
2022-09-15T06:21:04.940Z,14.96
2022-09-15T06:23:32.975Z,15.01
2022-09-15T06:26:04.826Z,14.99
2022-09-15T06:28:35.536Z,15.00
2022-09-15T06:31:04.375Z,15.17
2022-09-15T06:33:32.970Z,15.31
2022-09-15T06:36:02.168Z,15.46
2022-09-15T06:38:32.690Z,15.46
2022-09-15T06:41:00.623Z,15.39
2022-09-15T06:43:31.741Z,15.34
2022-09-15T06:46:16.767Z,15.37
2022-09-15T06:48:48.160Z,15.41
2022-09-15T06:51:17.436Z,15.49
2022-09-15T06:53:47.247Z,15.50
2022-09-15T06:56:19.310Z,15.60
2022-09-15T06:58:49.496Z,15.66
2022-09-15T07:01:33.880Z,15.77
2022-09-15T07:04:02.882Z,15.82
2022-09-15T07:06:31.480Z,15.92
2022-09-15T07:08:59.533Z,16.04
2022-09-15T07:11:29.115Z,16.09
2022-09-15T07:13:57.110Z,16.20
2022-09-15T07:16:31.041Z,16.20
2022-09-15T07:19:01.335Z,16.26
2022-09-15T07:21:31.868Z,16.37
2022-09-15T07:24:08.838Z,16.57
2022-09-15T07:26:36.728Z,16.64
2022-09-15T07:29:07.447Z,16.71
2022-09-15T07:31:36.916Z,16.79
2022-09-15T07:34:07.091Z,16.87
2022-09-15T07:36:35.294Z,16.84
2022-09-15T07:39:04.454Z,16.91
2022-09-15T07:41:32.486Z,17.01
2022-09-15T07:44:03.546Z,17.06
2022-09-15T07:46:32.202Z,17.13
2022-09-15T07:49:03.396Z,17.23
2022-09-15T07:51:31.615Z,17.39
2022-09-15T07:53:59.431Z,17.41
2022-09-15T07:56:29.891Z,17.51
2022-09-15T07:58:58.420Z,17.70
2022-09-15T08:01:26.458Z,17.59
2022-09-15T08:03:56.123Z,17.65
2022-09-15T08:06:29.382Z,17.76
2022-09-15T08:09:00.796Z,17.79
2022-09-15T08:11:31.779Z,17.78
2022-09-15T08:14:01.403Z,17.83
2022-09-15T08:16:29.298Z,17.91
2022-09-15T08:18:57.282Z,17.84
2022-09-15T08:21:25.885Z,17.92
2022-09-15T08:23:56.171Z,18.02
2022-09-15T08:26:25.078Z,18.25
2022-09-15T08:28:54.350Z,18.54
2022-09-15T08:31:24.104Z,18.68
2022-09-15T08:33:53.720Z,18.84
2022-09-15T08:36:24.593Z,18.97
2022-09-15T08:38:52.705Z,19.08
2022-09-15T08:41:23.023Z,19.26
2022-09-15T08:43:56.989Z,19.32
2022-09-15T08:46:29.795Z,19.46
2022-09-15T08:49:30.621Z,19.47
2022-09-15T08:52:05.437Z,19.28
2022-09-15T08:54:35.378Z,19.04
2022-09-15T08:57:03.399Z,18.93
2022-09-15T08:59:35.394Z,18.93
2022-09-15T09:02:13.250Z,18.85
2022-09-15T09:05:28.047Z,18.83
2022-09-15T09:07:57.847Z,18.59
2022-09-15T09:10:36.546Z,18.52
2022-09-15T09:13:09.015Z,18.52
2022-09-15T09:15:43.945Z,18.79
2022-09-15T09:18:12.003Z,18.99
2022-09-15T09:20:55.671Z,18.96
2022-09-15T09:23:25.169Z,18.95
2022-09-15T09:25:53.317Z,18.87
2022-09-15T09:28:28.022Z,18.76
2022-09-15T09:30:57.912Z,18.56
2022-09-15T09:33:28.602Z,18.42
2022-09-15T09:35:58.620Z,18.42
2022-09-15T09:38:31.353Z,18.44
2022-09-15T09:41:02.856Z,18.32
2022-09-15T09:43:32.359Z,18.25
2022-09-15T09:46:02.070Z,18.33
2022-09-15T09:48:30.269Z,18.43
2022-09-15T09:51:01.408Z,18.56
2022-09-15T09:53:31.298Z,18.71
2022-09-15T09:56:13.035Z,18.87
2022-09-15T09:58:44.009Z,18.84
2022-09-15T10:01:13.660Z,18.79
2022-09-15T10:03:43.371Z,18.74
2022-09-15T10:06:14.295Z,18.60
2022-09-15T10:09:00.689Z,18.56
2022-09-15T10:11:41.158Z,18.55
2022-09-15T10:14:16.871Z,18.48
2022-09-15T10:16:44.806Z,18.42
2022-09-15T10:19:13.583Z,18.43
2022-09-15T10:21:41.654Z,18.42
2022-09-15T10:24:29.767Z,18.45
2022-09-15T10:27:16.750Z,18.59
2022-09-15T10:29:44.963Z,18.64
2022-09-15T10:32:18.327Z,18.70
2022-09-15T10:34:49.313Z,18.92
2022-09-15T10:37:23.562Z,19.24
2022-09-15T10:39:55.364Z,19.29
2022-09-15T10:42:31.026Z,19.49
2022-09-15T10:45:03.980Z,19.93
2022-09-15T10:47:51.769Z,20.35
2022-09-15T10:50:42.911Z,20.66
2022-09-15T10:53:10.933Z,20.86
2022-09-15T10:55:59.043Z,20.81
2022-09-15T10:58:29.891Z,20.82
2022-09-15T11:01:01.887Z,20.95
2022-09-15T11:03:43.705Z,20.67
2022-09-15T11:06:31.999Z,20.54
2022-09-15T11:09:06.022Z,20.89
2022-09-15T11:12:13.594Z,20.92
2022-09-15T11:14:48.907Z,20.84
2022-09-15T11:17:22.893Z,20.86
2022-09-15T11:19:53.658Z,21.00
2022-09-15T11:22:25.298Z,21.19
2022-09-15T11:24:58.828Z,21.38
2022-09-15T11:27:36.717Z,21.54
2022-09-15T11:30:23.533Z,21.48
2022-09-15T11:33:04.646Z,21.48
2022-09-15T11:35:49.163Z,21.22
2022-09-15T11:38:24.189Z,21.23
2022-09-15T11:40:57.470Z,21.01
2022-09-15T11:43:31.261Z,20.91
2022-09-15T11:45:59.086Z,20.89
2022-09-15T11:48:39.816Z,21.05
2022-09-15T11:51:07.489Z,21.31
2022-09-15T11:53:43.047Z,21.63
2022-09-15T11:56:14.454Z,21.91
2022-09-15T11:58:55.022Z,22.04
2022-09-15T12:01:29.173Z,22.13
2022-09-15T12:03:59.487Z,21.96
2022-09-15T12:06:46.395Z,21.80
2022-09-15T12:09:16.071Z,21.78
2022-09-15T12:11:47.134Z,21.78
2022-09-15T12:14:35.575Z,21.71
2022-09-15T12:17:06.550Z,21.48
2022-09-15T12:19:46.101Z,21.25
2022-09-15T12:22:16.802Z,20.88
2022-09-15T12:24:50.934Z,20.50
2022-09-15T12:27:20.193Z,20.40
2022-09-15T12:29:51.506Z,20.40
2022-09-15T12:32:26.909Z,20.55
2022-09-15T12:35:07.952Z,20.53
2022-09-15T12:37:46.871Z,20.35
2022-09-15T12:40:33.721Z,20.36
2022-09-15T12:43:16.447Z,20.35
2022-09-15T12:45:52.770Z,20.26
2022-09-15T12:48:20.923Z,20.16
2022-09-15T12:50:55.425Z,20.21
2022-09-15T12:53:24.706Z,20.38
2022-09-15T12:55:56.976Z,20.44
2022-09-15T12:58:24.702Z,20.50
2022-09-15T13:01:17.032Z,20.47
2022-09-15T13:06:26.133Z,20.48
2022-09-15T13:09:06.650Z,20.25
2022-09-15T13:11:37.413Z,20.07
2022-09-15T13:14:12.079Z,19.93
2022-09-15T13:16:40.171Z,19.75
2022-09-15T13:19:17.164Z,19.57
2022-09-15T13:21:52.180Z,19.35
2022-09-15T13:24:38.841Z,19.19
2022-09-15T13:27:06.745Z,18.98
2022-09-15T13:29:41.274Z,18.81
2022-09-15T13:32:29.245Z,18.67
2022-09-15T13:35:19.564Z,18.65
2022-09-15T13:38:12.561Z,18.52
2022-09-15T13:41:05.428Z,18.45
2022-09-15T13:43:36.279Z,18.43
2022-09-15T13:46:12.057Z,18.38
2022-09-15T13:48:47.165Z,18.32
2022-09-15T13:51:25.743Z,18.22
2022-09-15T13:53:59.711Z,18.20
2022-09-15T13:56:35.611Z,18.16
2022-09-15T13:59:14.091Z,18.15
2022-09-15T14:01:43.340Z,18.11
2022-09-15T14:04:21.680Z,18.13
2022-09-15T14:06:50.279Z,18.20
2022-09-15T14:09:21.211Z,18.36
2022-09-15T14:11:49.696Z,18.47
2022-09-15T14:14:37.249Z,18.55
2022-09-15T14:17:05.572Z,18.68
2022-09-15T14:19:34.851Z,18.82
2022-09-15T14:22:24.833Z,19.02
2022-09-15T14:24:53.184Z,19.25
2022-09-15T14:27:22.262Z,19.66
2022-09-15T14:29:54.531Z,19.90
2022-09-15T14:32:23.439Z,19.95
2022-09-15T14:34:51.179Z,19.92
2022-09-15T14:37:28.605Z,20.07
2022-09-15T14:39:57.537Z,20.00
2022-09-15T14:42:41.644Z,20.51
2022-09-15T14:48:07.944Z,20.73
2022-09-15T14:50:35.895Z,20.33
2022-09-15T14:53:04.043Z,20.02
2022-09-15T14:55:33.940Z,19.99
2022-09-15T14:58:04.953Z,20.67
2022-09-15T15:00:34.729Z,20.92
2022-09-15T15:03:03.371Z,20.77
2022-09-15T15:05:35.856Z,20.46
2022-09-15T15:08:04.702Z,20.31
2022-09-15T15:10:35.887Z,20.40
2022-09-15T15:13:07.900Z,20.02
2022-09-15T15:15:37.174Z,19.77
2022-09-15T15:18:05.722Z,19.40
2022-09-15T15:20:33.711Z,19.08
2022-09-15T15:23:11.247Z,18.86
2022-09-15T15:25:39.132Z,18.68
2022-09-15T15:28:06.829Z,18.50
2022-09-15T15:30:36.382Z,18.23
2022-09-15T15:33:06.930Z,18.02
2022-09-15T15:35:35.867Z,17.91
2022-09-15T15:38:05.756Z,17.76
2022-09-15T15:40:35.486Z,17.58
2022-09-15T15:43:06.153Z,17.49
2022-09-15T15:45:35.660Z,17.44
2022-09-15T15:48:04.486Z,17.39
2022-09-15T15:50:32.743Z,17.35
2022-09-15T15:53:02.752Z,17.34
2022-09-15T15:55:40.237Z,17.30
2022-09-15T15:58:09.108Z,17.27
2022-09-15T16:00:40.024Z,17.20
2022-09-15T16:03:11.261Z,17.16
2022-09-15T16:05:39.406Z,17.12
2022-09-15T16:08:10.360Z,17.09
2022-09-15T16:10:39.389Z,17.06
2022-09-15T16:13:07.430Z,17.05
2022-09-15T16:15:35.344Z,17.04
2022-09-15T16:18:04.277Z,17.03
2022-09-15T16:20:32.024Z,17.01
2022-09-15T16:22:59.739Z,16.99
2022-09-15T16:25:39.020Z,16.97
2022-09-15T16:28:07.037Z,16.95
2022-09-15T16:30:35.232Z,16.92
2022-09-15T16:33:03.083Z,16.88
2022-09-15T16:35:33.492Z,16.85
2022-09-15T16:38:04.738Z,16.78
2022-09-15T16:40:32.725Z,16.69
2022-09-15T16:43:00.667Z,16.62
2022-09-15T16:45:38.245Z,16.57
2022-09-15T16:48:11.643Z,16.53
2022-09-15T16:50:45.836Z,16.47
2022-09-15T16:53:18.478Z,16.44
2022-09-15T16:55:46.494Z,16.40
2022-09-15T16:58:15.396Z,16.40
2022-09-15T17:00:43.677Z,16.39
2022-09-15T17:03:15.160Z,16.34
2022-09-15T17:05:48.510Z,16.28
2022-09-15T17:08:20.391Z,16.23
2022-09-15T17:10:48.669Z,16.17
2022-09-15T17:13:17.684Z,16.10
2022-09-15T17:15:45.994Z,16.04
2022-09-15T17:18:15.603Z,16.02
2022-09-15T17:20:44.231Z,16.01
2022-09-15T17:23:25.430Z,15.96
2022-09-15T17:25:57.693Z,15.95
2022-09-15T17:28:28.114Z,15.96
2022-09-15T17:30:57.531Z,15.98
2022-09-15T17:33:25.931Z,15.95
2022-09-15T17:35:54.664Z,15.93
2022-09-15T17:38:23.196Z,15.90
2022-09-15T17:40:54.652Z,15.84
2022-09-15T17:43:24.487Z,15.82
2022-09-15T17:45:54.336Z,15.83
2022-09-15T17:48:25.751Z,15.79
2022-09-15T17:50:57.906Z,15.73
2022-09-15T17:53:31.116Z,15.70
2022-09-15T17:55:59.253Z,15.66
2022-09-15T17:58:31.551Z,15.66
2022-09-15T18:01:01.860Z,15.62
2022-09-15T18:03:31.239Z,15.62
2022-09-15T18:06:06.868Z,15.59
2022-09-15T18:08:38.346Z,15.55
2022-09-15T18:11:15.569Z,15.50
2022-09-15T18:13:45.711Z,15.47
2022-09-15T18:16:15.012Z,15.42
2022-09-15T18:18:44.607Z,15.36
2022-09-15T18:21:24.887Z,15.26
2022-09-15T18:23:53.565Z,15.21
2022-09-15T18:26:26.493Z,15.17
2022-09-15T18:28:55.975Z,15.11
2022-09-15T18:31:24.693Z,15.09
2022-09-15T18:33:52.901Z,15.03
2022-09-15T18:36:20.868Z,15.00
2022-09-15T18:38:50.105Z,14.99
2022-09-15T18:41:18.777Z,14.96
2022-09-15T18:43:49.314Z,14.94
2022-09-15T18:46:18.659Z,14.92
2022-09-15T18:48:48.111Z,14.90
2022-09-15T18:51:23.837Z,14.83
2022-09-15T18:53:57.564Z,14.79
2022-09-15T18:56:25.668Z,14.76
2022-09-15T18:58:57.401Z,14.73
2022-09-15T19:01:28.731Z,14.67
2022-09-15T19:03:58.129Z,14.63
2022-09-15T19:06:29.310Z,14.56
2022-09-15T19:08:57.365Z,14.50
2022-09-15T19:11:27.371Z,14.46
2022-09-15T19:13:58.364Z,14.42
2022-09-15T19:16:46.637Z,14.39
2022-09-15T19:19:17.766Z,14.33
2022-09-15T19:21:48.437Z,14.30
2022-09-15T19:24:19.145Z,14.31
2022-09-15T19:26:47.343Z,14.28
2022-09-15T19:29:18.044Z,14.24
2022-09-15T19:31:46.073Z,14.17
2022-09-15T19:34:14.806Z,14.13
2022-09-15T19:36:43.656Z,14.11
2022-09-15T19:39:13.602Z,14.11
2022-09-15T19:41:43.168Z,14.13
2022-09-15T19:44:11.098Z,14.14
2022-09-15T19:46:39.549Z,14.11
2022-09-15T19:49:10.237Z,14.08
2022-09-15T19:51:38.774Z,14.05
2022-09-15T19:54:07.192Z,14.02
2022-09-15T19:56:35.561Z,14.03
2022-09-15T19:59:03.971Z,14.04
2022-09-15T20:01:32.797Z,14.04
2022-09-15T20:04:02.187Z,14.03
2022-09-15T20:06:32.763Z,14.07
2022-09-15T20:09:05.621Z,14.08
2022-09-15T20:11:34.086Z,14.05
2022-09-15T20:14:01.894Z,14.03
2022-09-15T20:16:32.246Z,14.03
2022-09-15T20:19:00.662Z,14.06
2022-09-15T20:21:49.372Z,14.10
2022-09-15T20:24:19.542Z,14.10
2022-09-15T20:26:47.538Z,14.07
2022-09-15T20:29:15.285Z,14.06
2022-09-15T20:31:46.580Z,14.09
2022-09-15T20:34:15.204Z,14.13
2022-09-15T20:36:43.551Z,14.16
2022-09-15T20:39:13.408Z,14.14
2022-09-15T20:41:42.275Z,14.12
2022-09-15T20:44:11.631Z,14.10
2022-09-15T20:46:39.519Z,14.09
2022-09-15T20:49:07.937Z,14.02
2022-09-15T20:51:35.618Z,13.99
2022-09-15T20:54:03.705Z,13.98
2022-09-15T20:56:32.236Z,13.95
2022-09-15T20:59:00.296Z,13.88
2022-09-15T21:01:29.556Z,13.86
2022-09-15T21:03:57.384Z,13.79
2022-09-15T21:06:26.038Z,13.71
2022-09-15T21:08:56.098Z,13.62
2022-09-15T21:11:24.818Z,13.57
2022-09-15T21:13:52.845Z,13.52
2022-09-15T21:16:21.572Z,13.50
2022-09-15T21:18:49.743Z,13.44
2022-09-15T21:21:19.306Z,13.45
2022-09-15T21:23:48.409Z,13.46
2022-09-15T21:26:17.178Z,13.47
2022-09-15T21:28:44.933Z,13.50
2022-09-15T21:31:14.944Z,13.53
2022-09-15T21:33:42.951Z,13.54
2022-09-15T21:36:10.859Z,13.51
2022-09-15T21:38:40.725Z,13.47
2022-09-15T21:41:09.799Z,13.46
2022-09-15T21:43:39.216Z,13.45
2022-09-15T21:46:08.569Z,13.44
2022-09-15T21:48:36.288Z,13.38
2022-09-15T21:51:04.816Z,13.34
2022-09-15T21:53:33.914Z,13.33
2022-09-15T21:56:02.071Z,13.31
2022-09-15T21:58:40.328Z,13.30
2022-09-15T22:01:13.791Z,13.26
2022-09-15T22:03:42.388Z,13.24
2022-09-15T22:06:12.997Z,13.23
2022-09-15T22:08:40.985Z,13.24
2022-09-15T22:11:09.037Z,13.26
2022-09-15T22:13:37.684Z,13.30
2022-09-15T22:16:06.465Z,13.33
2022-09-15T22:18:37.482Z,13.35
2022-09-15T22:21:05.351Z,13.37
2022-09-15T22:23:34.135Z,13.38
2022-09-15T22:26:02.543Z,13.39
2022-09-15T22:28:31.374Z,13.36
2022-09-15T22:30:59.692Z,13.39
2022-09-15T22:33:27.727Z,13.44
2022-09-15T22:35:55.709Z,13.51
2022-09-15T22:38:23.838Z,13.49
2022-09-15T22:40:51.698Z,13.48
2022-09-15T22:43:19.565Z,13.50
2022-09-15T22:45:47.654Z,13.54
2022-09-15T22:48:15.400Z,13.55
2022-09-15T22:50:46.447Z,13.53
2022-09-15T22:53:15.424Z,13.56
2022-09-15T22:55:43.831Z,13.55
2022-09-15T22:58:11.524Z,13.55
2022-09-15T23:04:10.344Z,13.44
2022-09-15T23:06:38.103Z,13.44
2022-09-15T23:09:07.095Z,13.47
2022-09-15T23:11:35.673Z,13.51
2022-09-15T23:14:04.380Z,13.50
2022-09-15T23:16:34.307Z,13.51
2022-09-15T23:19:02.562Z,13.51
2022-09-15T23:21:30.534Z,13.48
2022-09-15T23:23:59.418Z,13.44
2022-09-15T23:26:29.244Z,13.39
2022-09-15T23:28:57.412Z,13.38
2022-09-15T23:31:25.262Z,13.36
2022-09-15T23:33:53.388Z,13.34
2022-09-15T23:36:23.245Z,13.30
2022-09-15T23:38:51.565Z,13.25
2022-09-15T23:41:20.221Z,13.19
2022-09-15T23:43:48.997Z,13.14
2022-09-15T23:46:17.561Z,13.10
2022-09-15T23:48:45.492Z,13.10
2022-09-15T23:51:13.212Z,13.08
2022-09-15T23:53:43.414Z,13.07
2022-09-15T23:56:11.276Z,13.08
2022-09-15T23:58:39.749Z,13.05
